Time;durP1;ratioP1;P1;durP2;ratioP2;P2;SDS_P1;SDS_P2;PMS_P1;PMS_P2;Temp;Humidity;BMP_temperature;BMP_pressure;BME280_temperature;BME280_humidity;BME280_pressure;Samples;Min_cycle;Max_cycle;Signal;HPM_P1;HPM_P2
2021/08/10 00:00:09;;;;;;;2.28;2.08;;;;;;;19.20;63.45;101037.69;5030405;28;20080;-47
2021/08/10 00:02:34;;;;;;;2.83;1.77;;;;;;;19.21;63.45;101040.28;5026987;28;20025;-47
2021/08/10 00:05:00;;;;;;;2.00;1.90;;;;;;;19.20;63.33;101035.00;5027692;28;20033;-47
2021/08/10 00:07:26;;;;;;;3.63;2.00;;;;;;;19.20;63.49;101037.69;5030488;28;20040;-47
2021/08/10 00:09:51;;;;;;;2.28;1.98;;;;;;;19.21;63.49;101034.09;5028451;28;20025;-46
2021/08/10 00:12:17;;;;;;;2.33;2.00;;;;;;;19.20;63.30;101037.69;5029190;28;20385;-44
2021/08/10 00:14:42;;;;;;;1.90;1.80;;;;;;;19.21;63.24;101034.09;5028796;28;20506;-47
2021/08/10 00:17:08;;;;;;;2.22;2.05;;;;;;;19.20;63.39;101038.56;5030550;28;20018;-47
2021/08/10 00:19:33;;;;;;;2.22;2.03;;;;;;;19.20;63.19;101035.00;5024413;28;20065;-47
2021/08/10 00:21:59;;;;;;;2.55;1.77;;;;;;;19.20;63.20;101029.66;5028006;28;20029;-47
2021/08/10 00:24:24;;;;;;;2.08;1.83;;;;;;;19.18;63.06;101029.72;5029696;28;20025;-47
2021/08/10 00:26:50;;;;;;;2.83;2.03;;;;;;;19.19;63.21;101025.25;5028821;28;20033;-47
2021/08/10 00:29:15;;;;;;;1.98;1.80;;;;;;;19.18;63.08;101024.38;5030404;28;20013;-47
2021/08/10 00:31:40;;;;;;;3.03;2.10;;;;;;;19.16;63.16;101026.25;5027466;28;20083;-47
2021/08/10 00:34:05;;;;;;;1.90;1.80;;;;;;;19.18;63.22;101023.50;5026757;28;20022;-47
2021/08/10 00:36:31;;;;;;;2.17;1.92;;;;;;;19.16;63.03;101020.03;5029736;28;20188;-47
2021/08/10 00:38:57;;;;;;;2.72;2.28;;;;;;;19.14;63.10;101022.75;5030072;28;20400;-47
2021/08/10 00:41:22;;;;;;;2.78;2.10;;;;;;;19.14;63.24;101021.91;5022879;28;20026;-47
2021/08/10 00:43:48;;;;;;;1.70;1.60;;;;;;;19.14;63.29;101028.09;5029317;28;20033;-47
2021/08/10 00:46:14;;;;;;;3.00;1.92;;;;;;;19.13;63.16;101023.69;5028379;28;20388;-47
2021/08/10 00:48:40;;;;;;;1.88;1.60;;;;;;;19.11;63.23;101020.22;5030210;28;20457;-46
2021/08/10 00:51:11;;;;;;;2.22;1.88;;;;;;;19.10;63.22;101019.34;5027282;28;20464;-47
2021/08/10 00:53:36;;;;;;;2.33;2.13;;;;;;;19.09;63.07;101020.28;5029856;28;20108;-47
2021/08/10 00:56:05;;;;;;;2.20;1.77;;;;;;;19.08;63.19;101018.50;5028821;28;20117;-47
2021/08/10 00:58:31;;;;;;;2.13;1.92;;;;;;;19.09;62.98;101022.94;5029626;28;20017;-47
2021/08/10 01:00:56;;;;;;;3.13;2.08;;;;;;;19.05;63.41;101018.63;5029631;28;20021;-47
2021/08/10 01:03:22;;;;;;;1.95;1.83;;;;;;;19.06;63.34;101016.81;5033278;28;20115;-47
2021/08/10 01:05:49;;;;;;;2.03;1.92;;;;;;;19.06;63.42;101017.72;5032880;28;20056;-47
2021/08/10 01:08:33;;;;;;;2.00;1.90;;;;;;;19.03;63.34;101015.13;5016110;28;20533;-47
2021/08/10 01:11:26;;;;;;;2.05;1.67;;;;;;;19.04;63.28;101021.34;5028664;28;20029;-46
2021/08/10 01:13:54;;;;;;;2.22;1.80;;;;;;;19.04;63.18;101016.00;5027309;28;20108;-47
2021/08/10 01:16:27;;;;;;;2.05;1.73;;;;;;;19.01;63.30;101011.66;5029809;28;20404;-47
2021/08/10 01:19:25;;;;;;;2.15;1.95;;;;;;;19.01;63.26;101010.78;5015005;28;20104;-47
2021/08/10 01:21:51;;;;;;;2.20;2.10;;;;;;;18.99;63.54;101010.84;5011905;28;20027;-47
2021/08/10 01:24:26;;;;;;;1.83;1.73;;;;;;;18.98;63.31;101011.78;5031939;28;20044;-46
2021/08/10 01:27:14;;;;;;;2.20;2.00;;;;;;;18.97;63.48;101004.66;5030498;28;20037;-47
2021/08/10 01:30:04;;;;;;;2.33;2.13;;;;;;;18.96;63.58;100998.47;5032667;28;20032;-47
2021/08/10 01:32:31;;;;;;;1.83;1.73;;;;;;;18.95;63.49;101007.44;5016885;28;20226;-47
2021/08/10 01:34:56;;;;;;;2.05;1.88;;;;;;;18.94;63.54;100999.47;5028138;28;20496;-47
2021/08/10 01:37:28;;;;;;;1.98;1.88;;;;;;;18.94;63.53;101004.81;5033190;28;20026;-46
2021/08/10 01:40:06;;;;;;;1.67;1.58;;;;;;;18.93;63.45;100992.38;5015144;28;20036;-47
2021/08/10 01:42:33;;;;;;;2.15;1.95;;;;;;;18.93;63.60;100997.72;5032399;28;20026;-47
2021/08/10 01:45:26;;;;;;;2.05;1.92;;;;;;;18.91;63.46;100994.25;5032444;28;20068;-46
2021/08/10 01:47:53;;;;;;;1.92;1.83;;;;;;;18.91;63.63;100991.56;5027735;28;20056;-46
2021/08/10 01:50:19;;;;;;;2.17;1.98;;;;;;;18.88;63.53;100989.91;5032778;28;20071;-46
2021/08/10 01:52:44;;;;;;;2.28;2.10;;;;;;;18.90;63.51;100998.69;5013638;28;20025;-47
2021/08/10 01:55:11;;;;;;;2.55;2.10;;;;;;;18.89;63.60;100996.97;5012274;28;20025;-47
2021/08/10 01:57:37;;;;;;;2.42;1.77;;;;;;;18.88;63.45;100994.34;5032027;28;20021;-47
2021/08/10 02:00:04;;;;;;;1.63;1.52;;;;;;;18.85;63.61;100993.53;5015154;28;20030;-47
2021/08/10 02:02:32;;;;;;;3.58;1.90;;;;;;;18.86;63.55;100991.75;5032074;28;20068;-47
2021/08/10 02:04:58;;;;;;;2.08;1.98;;;;;;;18.85;63.34;100996.19;5029910;28;20022;-47
2021/08/10 02:07:23;;;;;;;2.63;2.28;;;;;;;18.87;63.32;100996.16;5014956;28;20029;-47
2021/08/10 02:09:49;;;;;;;1.60;1.50;;;;;;;18.84;63.27;100999.81;5029676;28;20053;-46
2021/08/10 02:12:16;;;;;;;2.55;2.35;;;;;;;18.84;63.57;100999.81;5029013;28;20076;-47
2021/08/10 02:14:43;;;;;;;2.08;1.95;;;;;;;18.84;63.31;101005.16;5030044;28;20056;-47
2021/08/10 02:17:09;;;;;;;2.22;2.03;;;;;;;18.83;63.26;101006.09;5031925;28;20460;-47
2021/08/10 02:19:35;;;;;;;2.25;2.00;;;;;;;18.81;63.45;101005.28;5011708;28;20109;-47
2021/08/10 02:22:06;;;;;;;2.70;2.08;;;;;;;18.81;63.24;101005.28;5014950;28;20037;-47
2021/08/10 02:24:37;;;;;;;2.40;2.20;;;;;;;18.80;63.33;101000.88;5031478;28;20025;-46
2021/08/10 02:27:05;;;;;;;2.33;2.13;;;;;;;18.79;63.37;100996.47;5015818;28;20511;-46
2021/08/10 02:29:34;;;;;;;1.98;1.88;;;;;;;18.77;63.40;100992.97;5028857;28;20060;-47
2021/08/10 02:32:01;;;;;;;4.00;2.70;;;;;;;18.80;63.52;100989.28;5030732;28;20067;-47
2021/08/10 02:34:26;;;;;;;2.03;1.83;;;;;;;18.79;63.41;100987.56;5011917;28;20028;-46
2021/08/10 02:36:55;;;;;;;2.47;2.28;;;;;;;18.77;63.45;100987.63;5028919;28;20060;-45
2021/08/10 02:39:21;;;;;;;2.00;1.88;;;;;;;18.77;63.32;100982.28;5032819;28;20021;-47
2021/08/10 02:41:46;;;;;;;2.40;2.20;;;;;;;18.77;63.26;100981.44;5009269;28;20064;-44
2021/08/10 02:44:12;;;;;;;2.30;2.10;;;;;;;18.76;63.33;100996.56;5028236;28;20096;-47
2021/08/10 02:46:37;;;;;;;2.65;2.40;;;;;;;18.76;63.23;100996.56;5028582;28;20029;-47
2021/08/10 02:49:02;;;;;;;2.75;2.38;;;;;;;18.75;63.33;100994.84;5031002;28;20035;-47
2021/08/10 02:51:28;;;;;;;2.63;2.42;;;;;;;18.74;63.31;100998.41;5032125;28;20026;-47
2021/08/10 02:53:53;;;;;;;2.08;1.88;;;;;;;18.72;63.38;100985.16;5031560;28;20024;-47
2021/08/10 02:56:22;;;;;;;2.28;2.08;;;;;;;18.72;63.41;100985.16;5011680;28;20021;-46
2021/08/10 02:58:55;;;;;;;3.25;2.45;;;;;;;18.72;63.18;100986.94;5008979;28;20098;-47
2021/08/10 03:01:26;;;;;;;2.58;1.90;;;;;;;18.71;62.98;100991.41;5012784;28;20091;-46
2021/08/10 03:03:53;;;;;;;2.38;2.17;;;;;;;18.71;63.17;100998.56;5029311;28;20060;-47
2021/08/10 03:06:20;;;;;;;2.83;2.45;;;;;;;18.70;63.35;100991.44;5013247;28;20032;-46
2021/08/10 03:08:54;;;;;;;2.10;2.00;;;;;;;18.69;63.33;100995.06;5012490;28;20029;-45
2021/08/10 03:11:19;;;;;;;3.10;2.40;;;;;;;18.69;63.42;100990.59;5008271;28;20763;-45
2021/08/10 03:13:45;;;;;;;2.38;2.20;;;;;;;18.69;63.42;100997.72;5029321;28;20096;-45
2021/08/10 03:16:13;;;;;;;2.40;2.10;;;;;;;18.68;63.25;100986.16;5013915;28;20751;-44
2021/08/10 03:18:39;;;;;;;2.45;2.20;;;;;;;18.68;63.23;100991.50;5009249;28;20605;-45
2021/08/10 03:21:05;;;;;;;2.67;2.47;;;;;;;18.68;63.30;100993.31;5010914;28;20431;-44
2021/08/10 03:23:33;;;;;;;3.05;1.92;;;;;;;18.67;63.05;100991.59;5013424;28;20013;-45
2021/08/10 03:25:59;;;;;;;2.75;2.55;;;;;;;18.67;63.30;100986.25;5030316;28;20028;-45
2021/08/10 03:28:26;;;;;;;2.30;2.10;;;;;;;18.66;63.22;100987.16;5007743;28;20029;-45
2021/08/10 03:30:52;;;;;;;2.95;2.35;;;;;;;18.65;63.26;100988.09;5010886;28;20123;-45
2021/08/10 03:33:17;;;;;;;3.40;2.22;;;;;;;18.66;63.26;100987.16;5011168;28;20108;-45
2021/08/10 03:35:43;;;;;;;2.75;2.30;;;;;;;18.64;63.26;100981.88;5028705;28;20163;-44
2021/08/10 03:38:10;;;;;;;2.10;1.85;;;;;;;18.64;63.23;100981.88;5009173;28;20045;-45
2021/08/10 03:40:37;;;;;;;2.40;2.20;;;;;;;18.62;63.25;100972.19;5022052;28;20029;-45
2021/08/10 03:43:02;;;;;;;3.80;2.20;;;;;;;18.63;63.35;100980.13;5010505;28;20022;-45
2021/08/10 03:45:28;;;;;;;2.13;1.92;;;;;;;18.63;63.35;100979.25;5013885;28;20374;-45
2021/08/10 03:47:55;;;;;;;2.85;2.60;;;;;;;18.61;63.21;100975.78;5029369;28;20031;-44
2021/08/10 03:50:20;;;;;;;2.70;2.50;;;;;;;18.60;63.38;100974.91;5001437;28;20029;-45
2021/08/10 03:52:50;;;;;;;2.25;2.10;;;;;;;18.61;63.16;100975.78;5027046;28;20488;-45
2021/08/10 03:55:16;;;;;;;2.30;2.10;;;;;;;18.59;63.25;100952.69;5009872;28;20455;-45
2021/08/10 03:57:41;;;;;;;2.47;2.28;;;;;;;18.59;63.42;100967.84;5029914;28;20044;-45
2021/08/10 04:00:07;;;;;;;2.70;2.50;;;;;;;18.59;63.37;100962.50;5011743;28;20025;-45
2021/08/10 04:02:33;;;;;;;3.22;2.50;;;;;;;18.59;63.14;100963.38;5005594;28;20025;-45
2021/08/10 04:04:59;;;;;;;2.70;2.50;;;;;;;18.58;63.12;100955.41;5024703;28;20028;-45
2021/08/10 04:07:25;;;;;;;2.47;2.28;;;;;;;18.58;63.33;100966.09;5007386;28;20489;-45
2021/08/10 04:09:51;;;;;;;2.35;2.15;;;;;;;18.57;63.44;100954.53;5030034;28;20037;-45
2021/08/10 04:12:17;;;;;;;2.50;2.30;;;;;;;18.57;63.28;100953.66;5010116;28;20014;-45
2021/08/10 04:14:42;;;;;;;2.50;2.30;;;;;;;18.57;63.45;100954.53;5007634;28;20025;-44
2021/08/10 04:17:08;;;;;;;2.45;2.13;;;;;;;18.56;63.41;100946.56;5026976;28;20040;-45
2021/08/10 04:19:49;;;;;;;2.47;2.28;;;;;;;18.56;63.32;100951.91;5012382;28;20032;-45
2021/08/10 04:22:14;;;;;;;2.65;2.28;;;;;;;18.54;63.23;100959.13;5013809;28;20044;-45
2021/08/10 04:24:40;;;;;;;2.55;2.35;;;;;;;18.54;63.30;100965.31;5027125;28;20041;-45
2021/08/10 04:27:05;;;;;;;3.05;2.35;;;;;;;18.54;63.19;100962.66;5029876;28;20102;-44
2021/08/10 04:29:30;;;;;;;3.45;2.72;;;;;;;18.54;63.45;100961.81;5026018;28;20500;-44
2021/08/10 04:31:56;;;;;;;3.45;3.15;;;;;;;18.54;63.32;100960.00;5028322;28;20018;-44
2021/08/10 04:34:21;;;;;;;2.25;2.05;;;;;;;18.54;63.17;100945.78;5026144;28;20026;-45
2021/08/10 04:36:46;;;;;;;2.38;2.17;;;;;;;18.53;63.45;100954.69;5029297;28;20036;-45
2021/08/10 04:39:11;;;;;;;3.45;2.58;;;;;;;18.52;63.41;100956.53;5030190;28;20480;-44
2021/08/10 04:41:37;;;;;;;2.58;2.38;;;;;;;18.51;63.31;100943.22;5025706;28;20040;-45
2021/08/10 04:44:07;;;;;;;2.63;2.42;;;;;;;18.51;63.38;100948.56;5006211;28;20036;-44
2021/08/10 04:46:54;;;;;;;2.77;2.57;;;;;;;18.50;63.37;100942.34;5028489;28;20025;-45
2021/08/10 04:49:19;;;;;;;2.35;2.10;;;;;;;18.50;63.24;100950.34;5027501;28;20135;-45
2021/08/10 04:51:45;;;;;;;2.60;2.40;;;;;;;18.50;63.50;100957.50;5027161;28;20029;-45
2021/08/10 04:54:10;;;;;;;2.80;2.60;;;;;;;18.48;63.39;100949.56;5029713;28;20092;-44
2021/08/10 04:56:36;;;;;;;2.80;2.50;;;;;;;18.48;63.58;100962.91;5027459;28;20110;-44
2021/08/10 04:59:01;;;;;;;2.40;2.20;;;;;;;18.48;63.46;100954.91;5029500;28;20144;-44
2021/08/10 05:01:26;;;;;;;3.78;2.33;;;;;;;18.48;63.52;100962.91;5028865;28;20040;-45
2021/08/10 05:03:52;;;;;;;3.83;3.08;;;;;;;18.48;63.29;100964.69;5007496;28;20106;-45
2021/08/10 05:09:40;;;;;;;2.70;2.50;;;;;;;18.46;63.58;100973.66;5027819;28;20183;-45
2021/08/10 05:12:07;;;;;;;3.95;2.65;;;;;;;18.44;63.41;100972.81;5029652;28;20026;-44
2021/08/10 05:14:32;;;;;;;3.83;2.80;;;;;;;18.44;63.58;100980.84;5028118;28;20024;-44
2021/08/10 05:16:57;;;;;;;4.50;2.78;;;;;;;18.44;63.58;100986.16;5026627;28;20033;-44
2021/08/10 05:19:27;;;;;;;3.60;2.70;;;;;;;18.44;63.64;100969.28;5026054;28;20018;-44
2021/08/10 05:21:53;;;;;;;4.20;3.58;;;;;;;18.44;63.75;100982.66;5030151;28;20030;-44
2021/08/10 05:24:18;;;;;;;3.08;2.88;;;;;;;18.42;63.56;100985.38;5025718;28;20025;-45
2021/08/10 05:26:43;;;;;;;3.83;2.95;;;;;;;18.43;63.66;100999.56;5024286;28;20448;-45
2021/08/10 05:29:09;;;;;;;2.88;2.58;;;;;;;18.42;63.48;100996.06;5030184;28;20099;-45
2021/08/10 05:31:34;;;;;;;3.40;3.10;;;;;;;18.42;63.60;100990.72;5029605;28;20017;-44
2021/08/10 05:33:59;;;;;;;2.70;2.50;;;;;;;18.42;63.63;100981.81;5029998;28;20049;-45
2021/08/10 05:36:24;;;;;;;3.42;2.60;;;;;;;18.43;63.56;100986.22;5025472;28;20083;-45
2021/08/10 05:38:53;;;;;;;4.05;3.13;;;;;;;18.41;63.67;100983.59;5028990;28;20120;-44
2021/08/10 05:41:18;;;;;;;5.15;2.60;;;;;;;18.44;63.46;100986.16;5028092;28;20025;-45
2021/08/10 05:43:44;;;;;;;2.97;2.75;;;;;;;18.42;63.67;100976.47;5027651;28;20028;-44
2021/08/10 05:46:09;;;;;;;3.05;2.80;;;;;;;18.48;63.27;100980.72;5030027;28;20121;-44
2021/08/10 05:48:34;;;;;;;3.10;2.42;;;;;;;18.44;63.36;100979.97;5031128;28;20425;-44
2021/08/10 05:51:01;;;;;;;3.00;2.70;;;;;;;18.42;63.54;100985.38;5033344;28;20091;-45
2021/08/10 05:53:26;;;;;;;3.05;2.75;;;;;;;18.45;63.50;100981.72;5015915;28;20049;-45
2021/08/10 05:55:51;;;;;;;3.67;2.97;;;;;;;18.40;63.59;100984.53;5029534;28;20056;-44
2021/08/10 05:58:17;;;;;;;4.75;3.40;;;;;;;18.44;63.62;100969.28;5030412;28;20110;-44
2021/08/10 06:00:42;;;;;;;2.60;2.40;;;;;;;18.47;63.38;100969.16;5033200;28;20025;-44
2021/08/10 06:03:07;;;;;;;4.18;2.75;;;;;;;18.46;63.42;100972.75;5029646;28;20047;-45
2021/08/10 06:05:33;;;;;;;3.35;2.78;;;;;;;18.44;63.34;100964.81;5032674;28;20052;-44
2021/08/10 06:07:59;;;;;;;2.90;2.67;;;;;;;18.43;63.67;100964.88;5032905;28;20113;-44
2021/08/10 06:10:25;;;;;;;4.03;2.97;;;;;;;18.39;63.73;100956.09;5031424;28;20609;-44
2021/08/10 06:12:51;;;;;;;2.95;2.63;;;;;;;18.38;63.80;100956.16;5032979;28;20021;-44
2021/08/10 06:15:16;;;;;;;3.10;2.75;;;;;;;18.37;63.65;100941.94;5027819;28;20022;-44
2021/08/10 06:17:41;;;;;;;3.53;2.65;;;;;;;18.34;63.91;100948.25;5018148;28;20059;-44
2021/08/10 06:20:07;;;;;;;2.80;2.55;;;;;;;18.34;63.72;100940.25;5032233;28;20032;-44
2021/08/10 06:22:32;;;;;;;3.40;2.75;;;;;;;18.33;63.89;100941.19;5014660;28;20264;-45
2021/08/10 06:24:58;;;;;;;2.72;2.53;;;;;;;18.32;64.01;100955.47;5030880;28;20021;-44
2021/08/10 06:27:24;;;;;;;2.67;2.47;;;;;;;18.30;64.03;100957.31;5030123;28;20083;-45
2021/08/10 06:29:50;;;;;;;2.72;2.53;;;;;;;18.32;64.05;100966.16;5030868;28;20079;-44
2021/08/10 06:32:15;;;;;;;2.88;2.65;;;;;;;18.32;63.88;100943.91;5031606;28;20033;-45
2021/08/10 06:34:41;;;;;;;3.88;2.45;;;;;;;18.33;63.86;100937.63;5031087;28;20477;-44
2021/08/10 06:37:06;;;;;;;3.35;2.67;;;;;;;18.37;63.92;100927.72;5029605;28;20025;-45
2021/08/10 06:39:33;;;;;;;3.28;2.55;;;;;;;18.39;63.79;100928.53;5014725;28;20063;-45
2021/08/10 06:41:58;;;;;;;2.95;2.75;;;;;;;18.35;63.96;100917.09;5028501;28;20403;-44
2021/08/10 06:44:24;;;;;;;3.65;2.63;;;;;;;18.36;64.00;100939.31;5025766;28;20026;-45
2021/08/10 06:46:49;;;;;;;3.20;2.90;;;;;;;18.31;63.93;100937.69;5032200;28;20036;-44
2021/08/10 06:49:14;;;;;;;3.50;2.90;;;;;;;18.30;64.26;100930.63;5032194;28;20174;-44
2021/08/10 06:51:40;;;;;;;2.92;2.65;;;;;;;18.31;64.23;100937.69;5030214;28;20033;-45
2021/08/10 06:54:05;;;;;;;2.78;2.53;;;;;;;18.34;64.07;100942.03;5030785;28;20017;-45
2021/08/10 06:56:30;;;;;;;3.60;2.92;;;;;;;18.34;63.95;100950.94;5031811;28;20029;-45
2021/08/10 06:58:55;;;;;;;2.88;2.50;;;;;;;18.31;64.23;100948.38;5031749;28;20074;-44
2021/08/10 07:01:21;;;;;;;2.90;2.70;;;;;;;18.33;64.25;100951.88;5030984;28;20017;-44
2021/08/10 07:03:46;;;;;;;4.05;3.38;;;;;;;18.34;64.29;100956.28;5030952;28;20108;-51
2021/08/10 07:06:11;;;;;;;2.95;2.75;;;;;;;18.34;64.21;100953.59;5032228;28;20033;-44
2021/08/10 07:08:38;;;;;;;3.05;2.80;;;;;;;18.33;64.46;100946.53;5031143;28;20473;-44
2021/08/10 07:11:04;;;;;;;2.67;2.47;;;;;;;18.36;64.20;100936.66;5031571;28;20033;-44
2021/08/10 07:13:29;;;;;;;3.40;3.10;;;;;;;18.33;64.17;100935.84;5007981;28;20018;-45
2021/08/10 07:15:57;;;;;;;2.95;2.70;;;;;;;18.39;64.10;100945.44;5012577;28;20021;-45
2021/08/10 07:18:23;;;;;;;3.78;3.10;;;;;;;18.38;64.35;100943.69;5030293;28;20429;-44
2021/08/10 07:20:48;;;;;;;3.55;2.85;;;;;;;18.37;64.31;100938.41;5026265;28;20036;-44
2021/08/10 07:23:13;;;;;;;2.83;2.58;;;;;;;18.34;64.06;100936.69;5029943;28;20022;-45
2021/08/10 07:25:39;;;;;;;3.65;2.83;;;;;;;18.32;64.46;100947.47;5031568;28;20040;-44
2021/08/10 07:28:05;;;;;;;3.53;3.22;;;;;;;18.34;64.26;100945.59;5030824;28;20508;-45
2021/08/10 07:30:30;;;;;;;3.97;2.80;;;;;;;18.32;64.20;100950.13;5031241;28;20021;-45
2021/08/10 07:32:56;;;;;;;3.95;2.53;;;;;;;18.35;64.41;100965.16;5031486;28;20032;-44
2021/08/10 07:35:21;;;;;;;4.07;3.20;;;;;;;18.28;64.44;100959.16;5030996;28;20063;-45
2021/08/10 07:37:49;;;;;;;3.20;2.85;;;;;;;18.28;64.37;100953.81;5030379;28;20033;-44
2021/08/10 07:40:15;;;;;;;2.95;2.75;;;;;;;18.32;64.57;100955.47;5028255;28;20029;-45
2021/08/10 07:42:41;;;;;;;2.88;2.50;;;;;;;18.36;64.29;100956.22;5028449;28;20064;-45
2021/08/10 07:45:07;;;;;;;2.80;2.60;;;;;;;18.32;64.49;100957.25;5031026;28;20025;-44
2021/08/10 07:47:33;;;;;;;3.10;2.80;;;;;;;18.27;64.44;100954.75;5029714;28;20112;-45
2021/08/10 07:49:58;;;;;;;3.40;2.90;;;;;;;18.31;64.56;100956.38;5031002;28;20071;-44
2021/08/10 07:52:24;;;;;;;3.05;2.75;;;;;;;18.30;64.56;100935.06;5026353;28;20038;-44
2021/08/10 07:54:49;;;;;;;2.72;2.53;;;;;;;18.29;64.49;100928.88;5027997;28;20724;-44
2021/08/10 07:57:14;;;;;;;3.28;2.97;;;;;;;18.31;64.52;100932.34;5030033;28;20025;-44
2021/08/10 07:59:40;;;;;;;3.20;3.00;;;;;;;18.32;64.65;100939.47;5031028;28;20393;-44
2021/08/10 08:02:05;;;;;;;3.47;3.17;;;;;;;18.30;64.59;100941.31;5030923;28;20029;-44
2021/08/10 08:04:34;;;;;;;4.32;3.35;;;;;;;18.26;64.33;100930.78;5012101;28;20029;-44
2021/08/10 08:06:59;;;;;;;3.30;2.80;;;;;;;18.25;64.50;100931.72;5028232;28;20068;-44
2021/08/10 08:09:24;;;;;;;3.10;2.78;;;;;;;18.27;64.67;100938.75;5030101;28;20053;-45
2021/08/10 08:11:50;;;;;;;4.35;2.60;;;;;;;18.26;64.72;100937.00;5026745;28;20052;-45
2021/08/10 08:14:19;;;;;;;3.03;2.60;;;;;;;18.26;64.71;100941.47;5030462;28;20453;-44
2021/08/10 08:16:45;;;;;;;2.90;2.60;;;;;;;18.27;64.58;100941.41;5029339;28;20087;-45
2021/08/10 08:19:10;;;;;;;2.95;2.75;;;;;;;18.24;64.56;100946.84;4999506;28;20132;-45
2021/08/10 08:21:36;;;;;;;2.88;2.65;;;;;;;18.25;64.77;100940.63;5028887;28;20021;-44
2021/08/10 08:24:01;;;;;;;2.97;2.70;;;;;;;18.23;64.80;100934.44;5028326;28;20031;-44
2021/08/10 08:26:26;;;;;;;3.28;2.97;;;;;;;18.23;64.51;100938.94;5029740;28;20036;-44
2021/08/10 08:28:51;;;;;;;4.97;3.10;;;;;;;18.28;64.90;100937.81;5030791;28;20396;-45
2021/08/10 08:31:17;;;;;;;3.20;2.92;;;;;;;18.27;65.06;100935.22;5025379;28;20033;-45
2021/08/10 08:33:42;;;;;;;3.58;3.28;;;;;;;18.28;64.95;100944.97;5027045;28;20033;-45
2021/08/10 08:36:07;;;;;;;3.28;3.08;;;;;;;18.25;65.31;100943.28;5027375;28;20032;-44
2021/08/10 08:38:33;;;;;;;3.45;3.05;;;;;;;18.25;65.26;100942.41;5013858;28;21511;-44
2021/08/10 08:40:58;;;;;;;3.05;2.80;;;;;;;18.24;65.25;100941.50;5027331;28;20501;-45
2021/08/10 08:43:25;;;;;;;2.97;2.78;;;;;;;18.24;65.30;100940.66;5027473;28;20045;-45
2021/08/10 08:45:50;;;;;;;5.22;3.40;;;;;;;18.23;65.43;100949.63;5026576;28;20025;-44
2021/08/10 08:48:16;;;;;;;3.70;3.17;;;;;;;18.25;65.20;100948.63;5030168;28;20068;-44
2021/08/10 08:50:45;;;;;;;3.17;2.88;;;;;;;18.27;65.21;100945.91;5030552;28;20400;-45
2021/08/10 08:53:12;;;;;;;2.58;2.38;;;;;;;18.27;65.10;100946.75;5027896;28;20045;-44
2021/08/10 08:55:39;;;;;;;2.75;2.53;;;;;;;18.29;65.01;100946.69;5026073;28;20072;-45
2021/08/10 08:58:04;;;;;;;4.95;3.00;;;;;;;18.28;65.16;100950.31;5010481;28;20028;-45
2021/08/10 09:00:29;;;;;;;3.50;3.20;;;;;;;18.26;65.41;100947.69;5029655;28;20025;-44
2021/08/10 09:02:54;;;;;;;3.10;2.75;;;;;;;18.25;65.52;100948.63;5028699;28;20388;-44
2021/08/10 09:05:20;;;;;;;3.50;3.20;;;;;;;18.24;65.53;100952.19;5028353;28;20036;-45
2021/08/10 09:07:45;;;;;;;3.28;2.97;;;;;;;18.24;65.50;100957.53;5029765;28;20061;-44
2021/08/10 09:12:50;;;;;;;4.13;2.92;;;;;;;18.23;65.55;100963.81;5004555;28;20414;-53
2021/08/10 09:15:39;;;;;;;4.57;3.00;;;;;;;18.27;65.46;100967.25;5007818;28;20088;-52
2021/08/10 09:18:14;;;;;;;3.63;2.95;;;;;;;18.26;65.36;100954.81;5005536;28;20068;-53
2021/08/10 09:20:41;;;;;;;4.15;3.72;;;;;;;18.23;65.76;100971.81;5005172;28;20037;-53
2021/08/10 09:23:06;;;;;;;4.38;2.72;;;;;;;18.24;65.56;100967.38;4996833;28;20129;-53
2021/08/10 09:25:34;;;;;;;3.35;3.05;;;;;;;18.24;65.50;100972.69;5004597;28;20108;-54
2021/08/10 09:28:07;;;;;;;3.92;3.20;;;;;;;18.22;65.63;100970.09;5002113;28;20474;-52
2021/08/10 09:30:34;;;;;;;4.13;3.10;;;;;;;18.22;65.72;100970.09;4978409;28;20029;-53
2021/08/10 09:33:04;;;;;;;2.90;2.60;;;;;;;18.24;65.70;100968.22;5000905;28;20041;-52
2021/08/10 09:35:50;;;;;;;3.38;2.50;;;;;;;18.25;65.63;100959.31;4993828;28;20038;-52
2021/08/10 09:38:17;;;;;;;3.22;2.72;;;;;;;18.23;65.61;100969.16;4989783;28;20030;-53
2021/08/10 09:40:47;;;;;;;3.28;2.95;;;;;;;18.21;65.66;100952.34;4973575;28;20042;-53
2021/08/10 09:43:35;;;;;;;3.50;3.17;;;;;;;18.22;65.66;100959.41;4996556;28;20054;-51
2021/08/10 09:46:14;;;;;;;4.10;2.90;;;;;;;18.22;65.80;100959.41;4984413;28;20021;-55
2021/08/10 09:48:49;;;;;;;3.72;2.80;;;;;;;18.19;65.88;100963.06;4992364;28;20050;-53
2021/08/10 09:51:17;;;;;;;3.45;3.15;;;;;;;18.20;65.88;100966.59;4989045;28;20022;-52
2021/08/10 09:53:53;;;;;;;3.88;3.13;;;;;;;18.19;65.57;100963.06;4998018;28;20022;-54
2021/08/10 09:56:18;;;;;;;3.42;2.90;;;;;;;18.20;65.85;100958.56;4982389;28;20038;-53
2021/08/10 09:59:00;;;;;;;3.47;3.08;;;;;;;18.21;65.56;100961.19;4985119;28;20026;-54
2021/08/10 10:01:49;;;;;;;3.15;2.85;;;;;;;18.23;65.55;100961.13;4996838;28;20018;-53
2021/08/10 10:04:33;;;;;;;5.32;4.00;;;;;;;18.20;65.52;100947.91;4997631;28;20034;-53
2021/08/10 10:07:09;;;;;;;3.67;3.38;;;;;;;18.20;65.73;100951.44;4988898;28;20042;-53
2021/08/10 10:09:35;;;;;;;3.60;3.00;;;;;;;18.19;65.63;100943.50;4999484;28;20481;-53
2021/08/10 10:12:00;;;;;;;3.00;2.80;;;;;;;18.20;65.57;100945.22;4997380;28;20033;-53
2021/08/10 10:14:27;;;;;;;3.63;2.38;;;;;;;18.20;65.74;100939.88;4996163;28;20093;-53
2021/08/10 10:16:53;;;;;;;3.67;2.95;;;;;;;18.18;65.72;100939.94;4993928;28;20462;-53
2021/08/10 10:19:21;;;;;;;3.05;2.85;;;;;;;18.18;65.71;100939.09;5000238;28;20027;-52
2021/08/10 10:22:17;;;;;;;4.30;2.90;;;;;;;18.18;65.71;100947.97;5004451;28;20350;-53
2021/08/10 10:24:57;;;;;;;3.97;3.22;;;;;;;18.21;65.61;100960.34;4992221;28;20030;-52
2021/08/10 10:27:24;;;;;;;3.10;2.80;;;;;;;18.20;65.71;100953.25;4994860;28;20444;-55
2021/08/10 10:29:53;;;;;;;3.10;2.78;;;;;;;18.20;65.89;100950.56;5000629;28;20030;-53
2021/08/10 10:32:23;;;;;;;2.77;2.57;;;;;;;18.20;65.60;100950.56;4996808;28;20018;-54
2021/08/10 10:34:49;;;;;;;2.55;2.35;;;;;;;18.19;65.71;100940.81;4998074;28;20117;-54
2021/08/10 10:37:21;;;;;;;3.40;3.10;;;;;;;18.21;65.45;100933.66;4995738;28;20057;-53
2021/08/10 10:39:49;;;;;;;3.22;2.53;;;;;;;18.21;65.62;100925.63;4991602;28;20029;-53
2021/08/10 10:42:15;;;;;;;3.05;2.75;;;;;;;18.25;65.38;100921.03;4973800;28;20105;-53
2021/08/10 10:44:51;;;;;;;2.92;2.72;;;;;;;18.23;65.38;100921.09;4983126;28;20033;-53
2021/08/10 10:47:28;;;;;;;3.08;2.88;;;;;;;18.25;65.33;100926.38;4977296;28;20030;-53
2021/08/10 10:49:57;;;;;;;2.65;2.45;;;;;;;18.24;65.58;100924.66;4994030;28;20038;-52
2021/08/10 10:52:24;;;;;;;2.63;2.42;;;;;;;18.26;65.56;100923.66;4993548;28;20472;-51
2021/08/10 10:54:49;;;;;;;3.50;2.88;;;;;;;18.25;65.54;100910.38;4994886;28;20058;-52
2021/08/10 10:57:33;;;;;;;2.80;2.60;;;;;;;18.24;65.45;100911.31;5003241;28;20160;-54
2021/08/10 11:00:04;;;;;;;2.90;2.55;;;;;;;18.25;65.51;100911.25;4997237;28;20121;-53
2021/08/10 11:02:30;;;;;;;2.70;2.50;;;;;;;18.24;65.52;100904.16;4991678;28;20025;-52
2021/08/10 11:08:35;;;;;;;3.42;2.88;;;;;;;18.26;65.32;100896.97;4998296;28;20037;-53
2021/08/10 11:11:01;;;;;;;2.45;2.25;;;;;;;18.26;65.45;100896.97;4995777;28;20041;-52
2021/08/10 11:13:35;;;;;;;2.55;2.30;;;;;;;18.27;65.38;100904.03;4993621;28;20421;-52
2021/08/10 11:16:01;;;;;;;3.30;2.20;;;;;;;18.27;65.28;100898.69;4981195;28;20500;-52
2021/08/10 11:18:27;;;;;;;2.67;2.47;;;;;;;18.28;65.28;100900.44;4993888;28;20026;-52
2021/08/10 11:21:01;;;;;;;3.55;2.25;;;;;;;18.30;65.26;100895.91;4992974;28;20367;-51
2021/08/10 11:23:26;;;;;;;2.80;2.10;;;;;;;18.29;65.43;100890.63;4990626;28;20097;-52
2021/08/10 11:25:57;;;;;;;2.58;2.38;;;;;;;18.28;65.32;100889.75;4995596;28;20069;-52
2021/08/10 11:28:51;;;;;;;2.92;2.30;;;;;;;18.32;65.54;100880.72;4996343;28;20029;-53
2021/08/10 11:31:34;;;;;;;2.65;2.35;;;;;;;18.29;65.72;100891.50;4995460;28;20035;-52
2021/08/10 11:34:00;;;;;;;2.53;2.33;;;;;;;18.28;65.91;100889.75;4985519;28;20022;-52
2021/08/10 11:36:26;;;;;;;3.25;2.63;;;;;;;18.31;65.46;100884.28;4992707;28;20478;-52